createdAt,value
2023-03-20T00:08:00.572Z,68.60
2023-03-20T00:23:04.430Z,68.27
2023-03-20T00:38:06.740Z,68.43
2023-03-20T00:53:25.035Z,68.46
2023-03-20T01:08:27.593Z,69.48
2023-03-20T01:23:30.093Z,69.76
2023-03-20T01:38:32.447Z,70.53
2023-03-20T01:53:34.887Z,70.52
2023-03-20T02:08:46.790Z,70.57
2023-03-20T02:24:45.809Z,70.14
2023-03-20T02:40:06.587Z,71.71
2023-03-20T02:55:51.831Z,72.46
2023-03-20T03:11:05.671Z,72.56
2023-03-20T03:26:14.962Z,72.35
2023-03-20T03:41:52.494Z,72.77
2023-03-20T03:56:56.888Z,73.34
2023-03-20T04:11:59.288Z,73.03
2023-03-20T04:27:01.659Z,73.02
2023-03-20T04:42:05.661Z,73.68
2023-03-20T04:57:22.877Z,74.18
2023-03-20T05:12:26.628Z,74.28
2023-03-20T05:27:29.038Z,74.81
2023-03-20T05:42:46.227Z,74.80
2023-03-20T06:03:08.600Z,74.91
2023-03-20T06:18:11.043Z,75.13
2023-03-20T06:33:13.581Z,75.84
2023-03-20T06:48:30.799Z,75.92
2023-03-20T07:03:33.665Z,75.56
2023-03-20T07:18:37.155Z,75.85
2023-03-20T07:33:39.809Z,76.69
2023-03-20T07:48:42.274Z,77.16
2023-03-20T08:03:44.820Z,77.26
2023-03-20T08:18:47.452Z,76.92
2023-03-20T08:34:04.743Z,77.92
2023-03-20T08:49:22.033Z,79.21
2023-03-20T09:04:25.234Z,79.97
2023-03-20T09:19:28.832Z,79.70
2023-03-20T09:34:31.765Z,80.51
2023-03-20T09:49:56.698Z,78.85
2023-03-20T10:04:59.764Z,78.42
2023-03-20T10:20:42.736Z,78.18
2023-03-20T10:36:39.572Z,77.36
2023-03-20T10:51:51.649Z,77.63
2023-03-20T11:07:07.256Z,77.66
2023-03-20T11:22:25.878Z,76.90
2023-03-20T11:37:34.593Z,76.33
2023-03-20T11:52:40.050Z,75.46
2023-03-20T12:08:29.799Z,74.19
2023-03-20T12:23:38.965Z,72.55
2023-03-20T12:38:43.888Z,70.67
2023-03-20T12:54:25.079Z,68.83
2023-03-20T13:09:57.944Z,67.63
2023-03-20T13:25:28.073Z,67.53
2023-03-20T13:40:39.886Z,67.93
2023-03-20T13:56:08.655Z,67.52
2023-03-20T14:11:34.452Z,68.04
2023-03-20T14:26:41.270Z,67.30
2023-03-20T14:42:07.140Z,67.24
2023-03-20T14:57:30.848Z,68.07
2023-03-20T15:12:37.027Z,68.88
2023-03-20T15:27:40.349Z,68.38
2023-03-20T15:42:43.827Z,69.01
2023-03-20T15:57:49.823Z,69.78
2023-03-20T16:12:56.725Z,68.87
2023-03-20T16:27:59.676Z,68.50
2023-03-20T16:43:20.257Z,68.51
2023-03-20T16:58:28.549Z,68.30
2023-03-20T17:13:31.187Z,69.48
2023-03-20T17:28:36.700Z,69.94
2023-03-20T17:43:56.256Z,70.19
2023-03-20T17:59:00.906Z,70.08
2023-03-20T18:14:07.068Z,70.76
2023-03-20T18:29:12.416Z,70.97
2023-03-20T18:44:16.105Z,70.65
2023-03-20T18:59:26.550Z,70.59
2023-03-20T19:14:30.064Z,71.39
2023-03-20T19:29:33.103Z,72.82
2023-03-20T19:44:36.536Z,73.13
2023-03-20T19:59:43.884Z,73.28
2023-03-20T20:14:47.141Z,74.11
2023-03-20T20:29:52.666Z,74.52
2023-03-20T20:44:55.532Z,74.30
2023-03-20T21:00:01.567Z,74.38
2023-03-20T21:15:06.256Z,74.53
2023-03-20T21:30:10.736Z,74.99
2023-03-20T21:46:06.964Z,74.90
2023-03-20T22:32:33.340Z,75.49
2023-03-20T22:47:01.839Z,75.28
2023-03-20T23:02:05.997Z,75.07
2023-03-20T23:17:09.147Z,75.35
2023-03-20T23:32:12.143Z,75.32
2023-03-20T23:47:20.412Z,75.57
